LiveATC.Net - Listen to live air traffic control over the Internet! Contact for advertising information

ICAO: SBMQ  IATA: MCP   Airport: Alberto Alcolumbre Airport
City: Macapa
Country: Brazil   Continent: South America
SBMQ METAR Weather: SBMQ 251200Z 09006KT 9999 SCT020 32/25 Q1011
SBMQ Flight Activity (FlightAware)
SBMQ Tower/App/Center
Feed Status: UP   Listeners: 3
Listen right in your browser - requires Flash (in browser, requires Flash)
Click here to listen with your own player (launches your MP3 player)
SBMQ Tower/App/Center Audio Archives
Amazonico Center123.950
Amazonico Center128.000
Macapa Approach119.000
Macapa Tower118.000


Unauthorized use prohibited. See Terms of Service

Find LiveATC Audio Streams

Airport/ARTCC Code

(e.g., 124.400, 128.75)
Site-wide search

Browse LiveATC Feeds
LiveATC Coverage Map
Top 50 LiveATC Feeds
Bad Weather Areas

Offer a LiveATC Feed
Press Inquiries

LiveATC on iPhone
LiveATC on Android

Windows Phone
Windows 8/10

LiveATC Mobile
(Mobile browser)

ATC Audio Archives
Interesting Recordings

LiveATC Forums

Home Page
Make a Donation
LiveATC Bookstore

Terms of Use
Privacy Policy

ATC/Radar Sites
U.S. ARTCC Freqs
Canadian Air Freqs


FAA Airport Status
Nat'l Airspace Status
Arrival Demand Charts

Server Software By:

Please make a donation to help us keep growing!